sensor_id;sensor_type;location;lat;lon;timestamp;P1;durP1;ratioP1;P2;durP2;ratioP2
44512;SDS011;30219;50.588;9.504;2022-10-17T00:00:22;4.30;;;1.30;;
44512;SDS011;30219;50.588;9.504;2022-10-17T00:02:48;5.60;;;1.77;;
44512;SDS011;30219;50.588;9.504;2022-10-17T00:05:13;3.60;;;1.40;;
44512;SDS011;30219;50.588;9.504;2022-10-17T00:07:39;2.63;;;1.33;;
44512;SDS011;30219;50.588;9.504;2022-10-17T00:10:06;2.38;;;1.30;;
44512;SDS011;30219;50.588;9.504;2022-10-17T00:12:32;5.15;;;1.50;;
44512;SDS011;30219;50.588;9.504;2022-10-17T00:14:58;3.03;;;1.40;;
44512;SDS011;30219;50.588;9.504;2022-10-17T00:17:24;3.97;;;1.92;;
44512;SDS011;30219;50.588;9.504;2022-10-17T00:19:49;2.75;;;1.50;;
44512;SDS011;30219;50.588;9.504;2022-10-17T00:22:15;2.78;;;1.42;;
44512;SDS011;30219;50.588;9.504;2022-10-17T00:24:41;6.35;;;1.50;;
44512;SDS011;30219;50.588;9.504;2022-10-17T00:27:07;3.55;;;1.45;;
44512;SDS011;30219;50.588;9.504;2022-10-17T00:29:32;5.47;;;1.70;;
44512;SDS011;30219;50.588;9.504;2022-10-17T00:31:58;4.32;;;1.60;;
44512;SDS011;30219;50.588;9.504;2022-10-17T00:34:23;2.65;;;2.13;;
44512;SDS011;30219;50.588;9.504;2022-10-17T00:36:49;4.45;;;2.00;;
44512;SDS011;30219;50.588;9.504;2022-10-17T00:39:14;5.55;;;2.08;;
44512;SDS011;30219;50.588;9.504;2022-10-17T00:41:40;4.82;;;1.90;;
44512;SDS011;30219;50.588;9.504;2022-10-17T00:44:53;6.60;;;1.85;;
44512;SDS011;30219;50.588;9.504;2022-10-17T00:46:58;14.75;;;2.20;;
44512;SDS011;30219;50.588;9.504;2022-10-17T00:49:30;9.38;;;2.70;;
44512;SDS011;30219;50.588;9.504;2022-10-17T00:52:03;4.10;;;1.90;;
44512;SDS011;30219;50.588;9.504;2022-10-17T00:54:39;9.60;;;2.00;;
44512;SDS011;30219;50.588;9.504;2022-10-17T00:57:09;2.85;;;1.70;;
44512;SDS011;30219;50.588;9.504;2022-10-17T00:59:36;6.72;;;1.85;;
44512;SDS011;30219;50.588;9.504;2022-10-17T01:02:11;4.93;;;1.90;;
44512;SDS011;30219;50.588;9.504;2022-10-17T01:04:39;54.20;;;2.85;;
44512;SDS011;30219;50.588;9.504;2022-10-17T01:07:06;4.25;;;2.00;;
44512;SDS011;30219;50.588;9.504;2022-10-17T01:09:32;10.88;;;2.22;;
44512;SDS011;30219;50.588;9.504;2022-10-17T01:17:42;2.17;;;1.30;;
44512;SDS011;30219;50.588;9.504;2022-10-17T01:32:06;4.22;;;1.80;;
44512;SDS011;30219;50.588;9.504;2022-10-17T01:35:03;4.60;;;1.63;;
44512;SDS011;30219;50.588;9.504;2022-10-17T01:37:39;3.67;;;1.77;;
44512;SDS011;30219;50.588;9.504;2022-10-17T01:40:59;7.70;;;1.45;;
44512;SDS011;30219;50.588;9.504;2022-10-17T01:48:47;4.38;;;1.90;;
44512;SDS011;30219;50.588;9.504;2022-10-17T01:51:17;4.43;;;2.40;;
44512;SDS011;30219;50.588;9.504;2022-10-17T01:53:57;3.85;;;2.10;;
44512;SDS011;30219;50.588;9.504;2022-10-17T01:56:24;4.10;;;1.90;;
44512;SDS011;30219;50.588;9.504;2022-10-17T01:59:02;7.70;;;2.20;;
44512;SDS011;30219;50.588;9.504;2022-10-17T02:01:33;3.95;;;2.00;;
44512;SDS011;30219;50.588;9.504;2022-10-17T02:04:02;5.63;;;2.25;;
44512;SDS011;30219;50.588;9.504;2022-10-17T02:06:33;9.48;;;2.38;;
44512;SDS011;30219;50.588;9.504;2022-10-17T02:09:00;5.47;;;2.47;;
44512;SDS011;30219;50.588;9.504;2022-10-17T02:11:26;5.07;;;1.88;;
44512;SDS011;30219;50.588;9.504;2022-10-17T02:14:11;5.25;;;2.22;;
44512;SDS011;30219;50.588;9.504;2022-10-17T02:19:51;5.93;;;1.92;;
44512;SDS011;30219;50.588;9.504;2022-10-17T02:27:52;9.80;;;2.15;;
44512;SDS011;30219;50.588;9.504;2022-10-17T02:35:58;5.55;;;2.20;;
44512;SDS011;30219;50.588;9.504;2022-10-17T02:38:28;7.05;;;2.17;;
44512;SDS011;30219;50.588;9.504;2022-10-17T02:40:55;8.00;;;2.00;;
44512;SDS011;30219;50.588;9.504;2022-10-17T02:43:21;4.82;;;1.70;;
44512;SDS011;30219;50.588;9.504;2022-10-17T02:45:48;9.40;;;2.88;;
44512;SDS011;30219;50.588;9.504;2022-10-17T02:51:11;6.85;;;3.33;;
44512;SDS011;30219;50.588;9.504;2022-10-17T02:56:54;8.10;;;2.83;;
44512;SDS011;30219;50.588;9.504;2022-10-17T02:59:26;5.80;;;2.55;;
44512;SDS011;30219;50.588;9.504;2022-10-17T03:01:55;5.18;;;2.17;;
44512;SDS011;30219;50.588;9.504;2022-10-17T03:04:20;11.80;;;3.83;;
44512;SDS011;30219;50.588;9.504;2022-10-17T03:06:46;4.70;;;2.70;;
44512;SDS011;30219;50.588;9.504;2022-10-17T03:09:13;10.75;;;2.88;;
44512;SDS011;30219;50.588;9.504;2022-10-17T03:11:40;8.27;;;2.53;;
44512;SDS011;30219;50.588;9.504;2022-10-17T03:14:05;9.45;;;2.85;;
44512;SDS011;30219;50.588;9.504;2022-10-17T03:16:31;8.70;;;2.40;;
44512;SDS011;30219;50.588;9.504;2022-10-17T03:18:57;8.27;;;2.55;;
44512;SDS011;30219;50.588;9.504;2022-10-17T03:21:22;5.15;;;2.40;;
44512;SDS011;30219;50.588;9.504;2022-10-17T03:23:48;5.40;;;2.10;;
44512;SDS011;30219;50.588;9.504;2022-10-17T03:26:13;8.35;;;2.90;;
44512;SDS011;30219;50.588;9.504;2022-10-17T03:28:39;7.85;;;3.53;;
44512;SDS011;30219;50.588;9.504;2022-10-17T03:31:05;9.82;;;3.05;;
44512;SDS011;30219;50.588;9.504;2022-10-17T03:33:32;8.93;;;2.28;;
44512;SDS011;30219;50.588;9.504;2022-10-17T03:35:57;14.32;;;4.07;;
44512;SDS011;30219;50.588;9.504;2022-10-17T03:38:23;9.65;;;3.85;;
44512;SDS011;30219;50.588;9.504;2022-10-17T03:40:55;12.77;;;4.82;;
44512;SDS011;30219;50.588;9.504;2022-10-17T03:43:20;10.32;;;3.90;;
44512;SDS011;30219;50.588;9.504;2022-10-17T03:45:46;12.70;;;3.28;;
44512;SDS011;30219;50.588;9.504;2022-10-17T03:48:12;10.95;;;2.72;;
44512;SDS011;30219;50.588;9.504;2022-10-17T03:50:37;4.13;;;2.42;;
44512;SDS011;30219;50.588;9.504;2022-10-17T03:53:03;6.57;;;2.30;;
44512;SDS011;30219;50.588;9.504;2022-10-17T03:55:28;6.55;;;2.33;;
44512;SDS011;30219;50.588;9.504;2022-10-17T03:57:54;7.50;;;2.20;;
44512;SDS011;30219;50.588;9.504;2022-10-17T04:00:19;7.10;;;1.98;;
44512;SDS011;30219;50.588;9.504;2022-10-17T04:02:45;8.80;;;2.22;;
44512;SDS011;30219;50.588;9.504;2022-10-17T04:05:10;7.05;;;2.28;;
44512;SDS011;30219;50.588;9.504;2022-10-17T04:07:36;6.88;;;1.98;;
44512;SDS011;30219;50.588;9.504;2022-10-17T04:10:01;6.70;;;2.35;;
44512;SDS011;30219;50.588;9.504;2022-10-17T04:12:28;6.90;;;1.80;;
44512;SDS011;30219;50.588;9.504;2022-10-17T04:14:53;8.93;;;2.30;;
44512;SDS011;30219;50.588;9.504;2022-10-17T04:17:19;11.55;;;2.05;;
44512;SDS011;30219;50.588;9.504;2022-10-17T04:19:45;4.50;;;1.73;;
44512;SDS011;30219;50.588;9.504;2022-10-17T04:22:10;5.40;;;1.98;;
44512;SDS011;30219;50.588;9.504;2022-10-17T04:24:36;6.15;;;2.08;;
44512;SDS011;30219;50.588;9.504;2022-10-17T04:27:01;14.10;;;2.42;;
44512;SDS011;30219;50.588;9.504;2022-10-17T04:29:27;10.90;;;2.00;;
44512;SDS011;30219;50.588;9.504;2022-10-17T04:31:53;12.38;;;2.63;;
44512;SDS011;30219;50.588;9.504;2022-10-17T04:34:20;5.88;;;2.00;;
44512;SDS011;30219;50.588;9.504;2022-10-17T04:36:45;13.98;;;2.50;;
44512;SDS011;30219;50.588;9.504;2022-10-17T04:39:11;4.63;;;1.90;;
44512;SDS011;30219;50.588;9.504;2022-10-17T04:41:37;7.72;;;2.08;;
44512;SDS011;30219;50.588;9.504;2022-10-17T04:44:02;5.05;;;2.45;;
44512;SDS011;30219;50.588;9.504;2022-10-17T04:46:28;7.05;;;3.08;;
44512;SDS011;30219;50.588;9.504;2022-10-17T04:48:53;7.78;;;2.60;;
44512;SDS011;30219;50.588;9.504;2022-10-17T04:51:19;13.02;;;4.38;;
44512;SDS011;30219;50.588;9.504;2022-10-17T04:53:45;9.55;;;4.97;;
44512;SDS011;30219;50.588;9.504;2022-10-17T04:56:12;8.55;;;4.38;;
44512;SDS011;30219;50.588;9.504;2022-10-17T04:58:39;6.85;;;3.38;;
44512;SDS011;30219;50.588;9.504;2022-10-17T05:01:06;7.25;;;2.28;;
44512;SDS011;30219;50.588;9.504;2022-10-17T05:03:33;8.43;;;2.50;;
44512;SDS011;30219;50.588;9.504;2022-10-17T05:06:06;6.93;;;2.80;;
44512;SDS011;30219;50.588;9.504;2022-10-17T05:08:34;6.55;;;3.08;;
44512;SDS011;30219;50.588;9.504;2022-10-17T05:10:59;11.50;;;3.33;;
44512;SDS011;30219;50.588;9.504;2022-10-17T05:13:25;14.45;;;3.28;;
44512;SDS011;30219;50.588;9.504;2022-10-17T05:15:51;10.05;;;2.67;;
44512;SDS011;30219;50.588;9.504;2022-10-17T05:18:16;5.50;;;2.47;;
44512;SDS011;30219;50.588;9.504;2022-10-17T05:20:42;6.63;;;2.28;;
44512;SDS011;30219;50.588;9.504;2022-10-17T05:23:08;5.65;;;2.75;;
44512;SDS011;30219;50.588;9.504;2022-10-17T05:25:33;5.45;;;2.45;;
44512;SDS011;30219;50.588;9.504;2022-10-17T05:27:59;6.75;;;3.10;;
44512;SDS011;30219;50.588;9.504;2022-10-17T05:30:24;8.15;;;2.63;;
44512;SDS011;30219;50.588;9.504;2022-10-17T05:32:53;6.65;;;2.45;;
44512;SDS011;30219;50.588;9.504;2022-10-17T05:35:19;7.60;;;2.90;;
44512;SDS011;30219;50.588;9.504;2022-10-17T05:37:46;6.38;;;2.58;;
44512;SDS011;30219;50.588;9.504;2022-10-17T05:40:12;8.23;;;2.50;;
44512;SDS011;30219;50.588;9.504;2022-10-17T05:42:37;9.10;;;2.58;;
44512;SDS011;30219;50.588;9.504;2022-10-17T05:45:03;5.90;;;2.42;;
44512;SDS011;30219;50.588;9.504;2022-10-17T05:47:29;6.97;;;2.53;;
44512;SDS011;30219;50.588;9.504;2022-10-17T05:49:55;7.97;;;2.60;;
44512;SDS011;30219;50.588;9.504;2022-10-17T05:52:21;8.35;;;3.20;;
44512;SDS011;30219;50.588;9.504;2022-10-17T05:54:46;7.40;;;3.28;;
44512;SDS011;30219;50.588;9.504;2022-10-17T05:57:12;6.93;;;2.97;;
44512;SDS011;30219;50.588;9.504;2022-10-17T05:59:37;12.63;;;2.97;;
44512;SDS011;30219;50.588;9.504;2022-10-17T06:02:03;12.30;;;3.03;;
44512;SDS011;30219;50.588;9.504;2022-10-17T06:04:28;17.70;;;3.92;;
44512;SDS011;30219;50.588;9.504;2022-10-17T06:06:54;12.23;;;3.45;;
44512;SDS011;30219;50.588;9.504;2022-10-17T06:09:20;7.80;;;3.30;;
44512;SDS011;30219;50.588;9.504;2022-10-17T06:11:47;8.27;;;2.80;;
44512;SDS011;30219;50.588;9.504;2022-10-17T06:14:12;6.43;;;3.45;;
44512;SDS011;30219;50.588;9.504;2022-10-17T06:16:38;7.00;;;2.85;;
44512;SDS011;30219;50.588;9.504;2022-10-17T06:19:03;5.00;;;2.75;;
44512;SDS011;30219;50.588;9.504;2022-10-17T06:21:29;11.95;;;3.05;;
44512;SDS011;30219;50.588;9.504;2022-10-17T06:23:58;5.95;;;2.78;;
44512;SDS011;30219;50.588;9.504;2022-10-17T06:26:23;5.93;;;2.50;;
44512;SDS011;30219;50.588;9.504;2022-10-17T06:28:49;7.05;;;2.47;;
44512;SDS011;30219;50.588;9.504;2022-10-17T06:31:15;7.32;;;3.35;;
44512;SDS011;30219;50.588;9.504;2022-10-17T06:33:41;6.65;;;3.40;;
44512;SDS011;30219;50.588;9.504;2022-10-17T06:36:08;10.32;;;3.00;;
44512;SDS011;30219;50.588;9.504;2022-10-17T06:38:36;6.22;;;3.70;;
44512;SDS011;30219;50.588;9.504;2022-10-17T06:41:03;11.27;;;4.00;;
44512;SDS011;30219;50.588;9.504;2022-10-17T06:43:31;6.57;;;2.60;;
44512;SDS011;30219;50.588;9.504;2022-10-17T06:45:57;6.75;;;2.65;;
44512;SDS011;30219;50.588;9.504;2022-10-17T06:48:22;11.23;;;2.83;;
44512;SDS011;30219;50.588;9.504;2022-10-17T06:50:48;8.60;;;2.33;;
44512;SDS011;30219;50.588;9.504;2022-10-17T06:53:13;6.13;;;1.92;;
44512;SDS011;30219;50.588;9.504;2022-10-17T06:55:39;10.20;;;2.13;;
44512;SDS011;30219;50.588;9.504;2022-10-17T06:58:04;8.73;;;2.00;;
44512;SDS011;30219;50.588;9.504;2022-10-17T07:00:30;9.45;;;2.25;;
44512;SDS011;30219;50.588;9.504;2022-10-17T07:02:55;11.35;;;2.65;;
44512;SDS011;30219;50.588;9.504;2022-10-17T07:05:21;10.95;;;2.13;;
44512;SDS011;30219;50.588;9.504;2022-10-17T07:07:47;9.70;;;2.17;;
44512;SDS011;30219;50.588;9.504;2022-10-17T07:10:12;8.27;;;2.30;;
44512;SDS011;30219;50.588;9.504;2022-10-17T07:12:38;8.10;;;2.30;;
44512;SDS011;30219;50.588;9.504;2022-10-17T07:15:03;10.25;;;2.20;;
44512;SDS011;30219;50.588;9.504;2022-10-17T07:17:29;7.50;;;2.28;;
44512;SDS011;30219;50.588;9.504;2022-10-17T07:19:55;5.03;;;2.15;;
44512;SDS011;30219;50.588;9.504;2022-10-17T07:22:21;6.20;;;2.30;;
44512;SDS011;30219;50.588;9.504;2022-10-17T07:24:46;6.40;;;2.60;;
44512;SDS011;30219;50.588;9.504;2022-10-17T07:27:12;11.60;;;2.85;;
44512;SDS011;30219;50.588;9.504;2022-10-17T07:29:39;9.05;;;2.50;;
44512;SDS011;30219;50.588;9.504;2022-10-17T07:32:04;5.45;;;2.35;;
44512;SDS011;30219;50.588;9.504;2022-10-17T07:34:33;8.85;;;2.67;;
44512;SDS011;30219;50.588;9.504;2022-10-17T07:36:59;12.27;;;2.95;;
44512;SDS011;30219;50.588;9.504;2022-10-17T07:39:26;9.80;;;2.83;;
44512;SDS011;30219;50.588;9.504;2022-10-17T07:41:51;5.70;;;1.90;;
44512;SDS011;30219;50.588;9.504;2022-10-17T07:44:17;8.13;;;1.92;;
44512;SDS011;30219;50.588;9.504;2022-10-17T07:46:42;5.25;;;2.03;;
44512;SDS011;30219;50.588;9.504;2022-10-17T07:49:08;6.20;;;2.42;;
44512;SDS011;30219;50.588;9.504;2022-10-17T07:51:34;4.40;;;1.90;;
44512;SDS011;30219;50.588;9.504;2022-10-17T07:53:59;9.30;;;2.10;;
44512;SDS011;30219;50.588;9.504;2022-10-17T07:56:25;9.20;;;2.70;;
44512;SDS011;30219;50.588;9.504;2022-10-17T07:58:51;8.30;;;2.00;;
44512;SDS011;30219;50.588;9.504;2022-10-17T08:01:17;5.82;;;2.00;;
44512;SDS011;30219;50.588;9.504;2022-10-17T08:03:43;7.20;;;2.15;;
44512;SDS011;30219;50.588;9.504;2022-10-17T08:06:09;5.88;;;2.17;;
44512;SDS011;30219;50.588;9.504;2022-10-17T08:08:36;8.93;;;2.60;;
44512;SDS011;30219;50.588;9.504;2022-10-17T08:11:03;12.93;;;2.40;;
44512;SDS011;30219;50.588;9.504;2022-10-17T08:13:30;8.63;;;2.70;;
44512;SDS011;30219;50.588;9.504;2022-10-17T08:16:02;8.18;;;2.00;;
44512;SDS011;30219;50.588;9.504;2022-10-17T08:18:33;4.68;;;1.98;;
44512;SDS011;30219;50.588;9.504;2022-10-17T08:20:59;5.85;;;2.13;;
44512;SDS011;30219;50.588;9.504;2022-10-17T08:23:26;8.65;;;1.88;;
44512;SDS011;30219;50.588;9.504;2022-10-17T08:25:52;5.28;;;1.75;;
44512;SDS011;30219;50.588;9.504;2022-10-17T08:28:18;5.30;;;1.80;;
44512;SDS011;30219;50.588;9.504;2022-10-17T08:30:43;5.43;;;1.90;;
44512;SDS011;30219;50.588;9.504;2022-10-17T08:33:09;5.55;;;1.80;;
44512;SDS011;30219;50.588;9.504;2022-10-17T08:35:34;6.30;;;1.70;;
44512;SDS011;30219;50.588;9.504;2022-10-17T08:38:00;6.78;;;1.70;;
44512;SDS011;30219;50.588;9.504;2022-10-17T08:40:27;7.47;;;1.83;;
44512;SDS011;30219;50.588;9.504;2022-10-17T08:45:53;4.28;;;1.77;;
44512;SDS011;30219;50.588;9.504;2022-10-17T08:48:24;6.55;;;1.50;;
44512;SDS011;30219;50.588;9.504;2022-10-17T08:50:52;6.70;;;1.60;;
44512;SDS011;30219;50.588;9.504;2022-10-17T08:53:20;4.65;;;1.20;;
44512;SDS011;30219;50.588;9.504;2022-10-17T08:55:54;6.13;;;1.90;;
44512;SDS011;30219;50.588;9.504;2022-10-17T08:58:24;3.85;;;1.80;;
44512;SDS011;30219;50.588;9.504;2022-10-17T09:06:21;5.70;;;1.60;;
44512;SDS011;30219;50.588;9.504;2022-10-17T09:09:00;6.28;;;1.40;;
44512;SDS011;30219;50.588;9.504;2022-10-17T09:11:51;3.90;;;1.38;;
44512;SDS011;30219;50.588;9.504;2022-10-17T09:17:38;4.90;;;1.33;;
44512;SDS011;30219;50.588;9.504;2022-10-17T09:23:05;4.10;;;1.52;;
44512;SDS011;30219;50.588;9.504;2022-10-17T09:25:47;2.95;;;1.27;;
44512;SDS011;30219;50.588;9.504;2022-10-17T09:31:11;15.05;;;3.20;;
44512;SDS011;30219;50.588;9.504;2022-10-17T09:33:47;5.43;;;1.40;;
44512;SDS011;30219;50.588;9.504;2022-10-17T09:36:17;21.30;;;2.28;;
44512;SDS011;30219;50.588;9.504;2022-10-17T09:39:01;8.50;;;1.73;;
44512;SDS011;30219;50.588;9.504;2022-10-17T09:41:36;11.10;;;1.70;;
44512;SDS011;30219;50.588;9.504;2022-10-17T09:46:39;6.82;;;1.77;;
44512;SDS011;30219;50.588;9.504;2022-10-17T09:49:08;10.38;;;1.80;;
44512;SDS011;30219;50.588;9.504;2022-10-17T09:51:42;7.70;;;1.77;;
44512;SDS011;30219;50.588;9.504;2022-10-17T09:54:17;11.73;;;2.72;;
44512;SDS011;30219;50.588;9.504;2022-10-17T09:56:59;7.00;;;1.48;;
44512;SDS011;30219;50.588;9.504;2022-10-17T09:59:28;7.03;;;1.23;;
44512;SDS011;30219;50.588;9.504;2022-10-17T10:07:24;5.00;;;1.20;;
44512;SDS011;30219;50.588;9.504;2022-10-17T10:09:52;11.02;;;2.22;;
44512;SDS011;30219;50.588;9.504;2022-10-17T10:12:23;8.68;;;1.60;;
44512;SDS011;30219;50.588;9.504;2022-10-17T10:15:29;4.90;;;1.55;;
44512;SDS011;30219;50.588;9.504;2022-10-17T10:17:56;10.68;;;1.88;;
44512;SDS011;30219;50.588;9.504;2022-10-17T10:20:35;7.85;;;1.50;;
44512;SDS011;30219;50.588;9.504;2022-10-17T10:25:31;7.88;;;1.52;;
44512;SDS011;30219;50.588;9.504;2022-10-17T10:27:57;4.88;;;1.85;;
44512;SDS011;30219;50.588;9.504;2022-10-17T10:30:24;8.75;;;1.73;;
44512;SDS011;30219;50.588;9.504;2022-10-17T10:32:53;8.60;;;2.22;;
44512;SDS011;30219;50.588;9.504;2022-10-17T10:35:32;9.07;;;1.67;;
44512;SDS011;30219;50.588;9.504;2022-10-17T10:38:00;9.25;;;2.42;;
44512;SDS011;30219;50.588;9.504;2022-10-17T10:40:34;10.02;;;1.98;;
44512;SDS011;30219;50.588;9.504;2022-10-17T10:43:15;19.58;;;2.75;;
44512;SDS011;30219;50.588;9.504;2022-10-17T10:45:55;4.72;;;1.40;;
44512;SDS011;30219;50.588;9.504;2022-10-17T10:53:38;12.93;;;2.60;;
44512;SDS011;30219;50.588;9.504;2022-10-17T10:59:02;6.25;;;1.80;;
44512;SDS011;30219;50.588;9.504;2022-10-17T11:01:51;11.60;;;2.00;;
44512;SDS011;30219;50.588;9.504;2022-10-17T11:07:10;15.27;;;2.47;;
44512;SDS011;30219;50.588;9.504;2022-10-17T11:12:23;9.30;;;1.50;;
44512;SDS011;30219;50.588;9.504;2022-10-17T11:17:59;7.32;;;1.80;;
44512;SDS011;30219;50.588;9.504;2022-10-17T11:20:41;6.57;;;1.40;;
44512;SDS011;30219;50.588;9.504;2022-10-17T11:23:31;8.05;;;1.52;;
44512;SDS011;30219;50.588;9.504;2022-10-17T11:26:01;13.70;;;2.22;;
44512;SDS011;30219;50.588;9.504;2022-10-17T11:28:31;28.42;;;4.28;;
44512;SDS011;30219;50.588;9.504;2022-10-17T11:30:58;15.27;;;1.73;;
44512;SDS011;30219;50.588;9.504;2022-10-17T11:33:40;14.60;;;1.95;;
44512;SDS011;30219;50.588;9.504;2022-10-17T11:36:44;7.90;;;1.60;;
44512;SDS011;30219;50.588;9.504;2022-10-17T11:39:16;9.70;;;1.40;;
44512;SDS011;30219;50.588;9.504;2022-10-17T11:41:47;4.43;;;1.45;;
44512;SDS011;30219;50.588;9.504;2022-10-17T11:44:31;8.02;;;1.55;;
44512;SDS011;30219;50.588;9.504;2022-10-17T11:49:58;5.38;;;1.27;;
44512;SDS011;30219;50.588;9.504;2022-10-17T11:52:37;7.05;;;1.70;;
44512;SDS011;30219;50.588;9.504;2022-10-17T11:55:16;4.57;;;1.70;;
44512;SDS011;30219;50.588;9.504;2022-10-17T12:00:17;5.35;;;1.48;;
44512;SDS011;30219;50.588;9.504;2022-10-17T12:03:06;9.90;;;1.63;;
44512;SDS011;30219;50.588;9.504;2022-10-17T12:17:24;9.85;;;1.98;;
44512;SDS011;30219;50.588;9.504;2022-10-17T12:19:51;6.03;;;1.75;;
44512;SDS011;30219;50.588;9.504;2022-10-17T12:22:18;5.57;;;1.50;;
44512;SDS011;30219;50.588;9.504;2022-10-17T12:25:02;5.72;;;1.50;;
44512;SDS011;30219;50.588;9.504;2022-10-17T12:27:36;8.02;;;2.00;;
44512;SDS011;30219;50.588;9.504;2022-10-17T12:32:36;5.18;;;1.70;;
44512;SDS011;30219;50.588;9.504;2022-10-17T12:35:02;5.50;;;1.40;;
44512;SDS011;30219;50.588;9.504;2022-10-17T12:43:01;5.30;;;1.50;;
44512;SDS011;30219;50.588;9.504;2022-10-17T12:45:49;5.82;;;1.30;;
44512;SDS011;30219;50.588;9.504;2022-10-17T12:54:26;6.75;;;1.48;;
44512;SDS011;30219;50.588;9.504;2022-10-17T12:56:37;3.63;;;1.45;;
44512;SDS011;30219;50.588;9.504;2022-10-17T12:59:11;3.13;;;1.50;;
44512;SDS011;30219;50.588;9.504;2022-10-17T13:01:47;7.53;;;1.40;;
44512;SDS011;30219;50.588;9.504;2022-10-17T13:04:15;9.77;;;2.33;;
44512;SDS011;30219;50.588;9.504;2022-10-17T13:06:44;3.97;;;1.50;;
44512;SDS011;30219;50.588;9.504;2022-10-17T13:11:54;7.55;;;1.80;;
44512;SDS011;30219;50.588;9.504;2022-10-17T13:14:22;7.93;;;1.60;;
44512;SDS011;30219;50.588;9.504;2022-10-17T13:16:59;6.10;;;1.67;;
44512;SDS011;30219;50.588;9.504;2022-10-17T13:19:29;4.15;;;1.38;;
44512;SDS011;30219;50.588;9.504;2022-10-17T13:22:12;5.30;;;1.75;;
44512;SDS011;30219;50.588;9.504;2022-10-17T13:24:44;5.80;;;2.22;;
44512;SDS011;30219;50.588;9.504;2022-10-17T13:27:24;2.45;;;1.30;;
44512;SDS011;30219;50.588;9.504;2022-10-17T13:29:52;8.88;;;1.83;;
44512;SDS011;30219;50.588;9.504;2022-10-17T13:32:20;10.68;;;2.38;;
44512;SDS011;30219;50.588;9.504;2022-10-17T13:35:03;5.28;;;1.67;;
44512;SDS011;30219;50.588;9.504;2022-10-17T13:37:34;4.07;;;1.42;;
44512;SDS011;30219;50.588;9.504;2022-10-17T13:40:00;6.32;;;1.60;;
44512;SDS011;30219;50.588;9.504;2022-10-17T13:42:30;6.07;;;1.88;;
44512;SDS011;30219;50.588;9.504;2022-10-17T13:45:02;7.43;;;1.67;;
44512;SDS011;30219;50.588;9.504;2022-10-17T13:47:36;11.70;;;2.50;;
44512;SDS011;30219;50.588;9.504;2022-10-17T13:50:03;8.52;;;1.98;;
44512;SDS011;30219;50.588;9.504;2022-10-17T13:52:30;5.97;;;1.60;;
44512;SDS011;30219;50.588;9.504;2022-10-17T13:55:05;4.55;;;1.77;;
44512;SDS011;30219;50.588;9.504;2022-10-17T13:57:32;5.63;;;1.90;;
44512;SDS011;30219;50.588;9.504;2022-10-17T13:59:59;5.68;;;2.20;;
44512;SDS011;30219;50.588;9.504;2022-10-17T14:02:27;6.90;;;2.35;;
44512;SDS011;30219;50.588;9.504;2022-10-17T14:12:42;6.53;;;2.15;;
44512;SDS011;30219;50.588;9.504;2022-10-17T14:15:08;5.50;;;2.10;;
44512;SDS011;30219;50.588;9.504;2022-10-17T14:17:39;10.52;;;3.20;;
44512;SDS011;30219;50.588;9.504;2022-10-17T14:20:05;6.65;;;1.77;;
44512;SDS011;30219;50.588;9.504;2022-10-17T14:22:33;7.00;;;1.73;;
44512;SDS011;30219;50.588;9.504;2022-10-17T14:25:00;5.57;;;2.38;;
44512;SDS011;30219;50.588;9.504;2022-10-17T14:27:27;7.47;;;1.80;;
44512;SDS011;30219;50.588;9.504;2022-10-17T14:30:03;8.63;;;2.05;;
44512;SDS011;30219;50.588;9.504;2022-10-17T14:32:35;9.68;;;1.95;;
44512;SDS011;30219;50.588;9.504;2022-10-17T14:35:03;6.43;;;1.85;;
44512;SDS011;30219;50.588;9.504;2022-10-17T14:37:42;7.63;;;2.20;;
44512;SDS011;30219;50.588;9.504;2022-10-17T14:40:14;7.78;;;1.75;;
44512;SDS011;30219;50.588;9.504;2022-10-17T14:42:41;8.00;;;2.88;;
44512;SDS011;30219;50.588;9.504;2022-10-17T14:45:11;14.18;;;2.00;;
44512;SDS011;30219;50.588;9.504;2022-10-17T14:47:38;9.70;;;2.00;;
44512;SDS011;30219;50.588;9.504;2022-10-17T14:52:36;11.15;;;2.40;;
44512;SDS011;30219;50.588;9.504;2022-10-17T14:55:22;6.20;;;2.10;;
44512;SDS011;30219;50.588;9.504;2022-10-17T14:57:49;6.38;;;2.10;;
44512;SDS011;30219;50.588;9.504;2022-10-17T15:00:16;5.03;;;1.75;;
44512;SDS011;30219;50.588;9.504;2022-10-17T15:02:43;10.55;;;1.80;;
44512;SDS011;30219;50.588;9.504;2022-10-17T15:05:09;12.68;;;2.35;;
44512;SDS011;30219;50.588;9.504;2022-10-17T15:07:35;8.95;;;2.03;;
44512;SDS011;30219;50.588;9.504;2022-10-17T15:10:00;7.72;;;1.75;;
44512;SDS011;30219;50.588;9.504;2022-10-17T15:12:26;10.60;;;2.05;;
44512;SDS011;30219;50.588;9.504;2022-10-17T15:14:52;9.95;;;1.90;;
44512;SDS011;30219;50.588;9.504;2022-10-17T15:17:19;12.80;;;1.90;;
44512;SDS011;30219;50.588;9.504;2022-10-17T15:19:52;5.70;;;1.80;;
44512;SDS011;30219;50.588;9.504;2022-10-17T15:22:19;8.07;;;1.83;;
44512;SDS011;30219;50.588;9.504;2022-10-17T15:24:44;5.55;;;1.80;;
44512;SDS011;30219;50.588;9.504;2022-10-17T15:29:40;16.95;;;2.00;;
44512;SDS011;30219;50.588;9.504;2022-10-17T15:32:06;5.00;;;1.80;;
44512;SDS011;30219;50.588;9.504;2022-10-17T15:34:32;6.95;;;1.67;;
44512;SDS011;30219;50.588;9.504;2022-10-17T15:36:58;5.25;;;1.77;;
44512;SDS011;30219;50.588;9.504;2022-10-17T15:39:23;8.40;;;1.83;;
44512;SDS011;30219;50.588;9.504;2022-10-17T15:41:49;7.50;;;1.80;;
44512;SDS011;30219;50.588;9.504;2022-10-17T15:44:14;7.90;;;1.83;;
44512;SDS011;30219;50.588;9.504;2022-10-17T15:46:40;6.22;;;2.05;;
44512;SDS011;30219;50.588;9.504;2022-10-17T15:49:09;5.40;;;1.98;;
44512;SDS011;30219;50.588;9.504;2022-10-17T15:51:41;4.22;;;1.85;;
44512;SDS011;30219;50.588;9.504;2022-10-17T15:54:06;9.93;;;1.83;;
44512;SDS011;30219;50.588;9.504;2022-10-17T15:56:39;4.85;;;1.85;;
44512;SDS011;30219;50.588;9.504;2022-10-17T15:59:11;8.18;;;2.05;;
44512;SDS011;30219;50.588;9.504;2022-10-17T16:01:42;5.72;;;2.10;;
44512;SDS011;30219;50.588;9.504;2022-10-17T16:04:09;4.13;;;2.00;;
44512;SDS011;30219;50.588;9.504;2022-10-17T16:06:37;5.30;;;1.75;;
44512;SDS011;30219;50.588;9.504;2022-10-17T16:09:03;6.35;;;2.10;;
44512;SDS011;30219;50.588;9.504;2022-10-17T16:11:32;9.13;;;2.28;;
44512;SDS011;30219;50.588;9.504;2022-10-17T16:14:05;12.63;;;2.53;;
44512;SDS011;30219;50.588;9.504;2022-10-17T16:16:35;10.18;;;2.15;;
44512;SDS011;30219;50.588;9.504;2022-10-17T16:19:00;6.57;;;2.30;;
44512;SDS011;30219;50.588;9.504;2022-10-17T16:21:27;11.13;;;2.13;;
44512;SDS011;30219;50.588;9.504;2022-10-17T16:23:55;7.15;;;2.33;;
44512;SDS011;30219;50.588;9.504;2022-10-17T16:26:21;10.70;;;2.22;;
44512;SDS011;30219;50.588;9.504;2022-10-17T16:28:47;6.88;;;2.33;;
44512;SDS011;30219;50.588;9.504;2022-10-17T16:31:20;7.18;;;2.38;;
44512;SDS011;30219;50.588;9.504;2022-10-17T16:33:53;7.88;;;1.95;;
44512;SDS011;30219;50.588;9.504;2022-10-17T16:36:20;6.70;;;2.67;;
44512;SDS011;30219;50.588;9.504;2022-10-17T16:38:46;8.57;;;1.95;;
44512;SDS011;30219;50.588;9.504;2022-10-17T16:43:48;8.45;;;2.25;;
44512;SDS011;30219;50.588;9.504;2022-10-17T16:46:15;9.30;;;2.25;;
44512;SDS011;30219;50.588;9.504;2022-10-17T16:48:42;10.48;;;2.58;;
44512;SDS011;30219;50.588;9.504;2022-10-17T16:51:09;7.88;;;2.50;;
44512;SDS011;30219;50.588;9.504;2022-10-17T16:53:35;11.32;;;2.40;;
44512;SDS011;30219;50.588;9.504;2022-10-17T16:56:04;7.90;;;2.38;;
44512;SDS011;30219;50.588;9.504;2022-10-17T16:58:30;11.38;;;2.22;;
44512;SDS011;30219;50.588;9.504;2022-10-17T17:01:00;13.15;;;2.28;;
44512;SDS011;30219;50.588;9.504;2022-10-17T17:03:27;5.13;;;1.65;;
44512;SDS011;30219;50.588;9.504;2022-10-17T17:05:52;8.35;;;2.10;;
44512;SDS011;30219;50.588;9.504;2022-10-17T17:08:18;15.25;;;2.53;;
44512;SDS011;30219;50.588;9.504;2022-10-17T17:10:46;11.93;;;2.35;;
44512;SDS011;30219;50.588;9.504;2022-10-17T17:13:15;16.23;;;2.50;;